Time;durP1;ratioP1;P1;durP2;ratioP2;P2;SDS_P1;SDS_P2;PMS_P1;PMS_P2;Temp;Humidity;BMP_temperature;BMP_pressure;BME280_temperature;BME280_humidity;BME280_pressure;Samples;Min_cycle;Max_cycle;Signal;HPM_P1;HPM_P2
2022/12/15 00:39:31;;;;;;;56.40;39.92;;;-5.20;99.90;;;;;;5099328;28;20202;-49
2022/12/15 00:41:57;;;;;;;61.13;40.20;;;-5.20;99.90;;;;;;5096098;28;20711;-50
2022/12/15 00:44:22;;;;;;;57.80;39.10;;;-5.30;99.90;;;;;;5098236;28;20457;-51
2022/12/15 00:46:54;;;;;;;55.73;38.87;;;-5.30;99.90;;;;;;5098824;28;20171;-49
2022/12/15 01:22:36;;;;;;;50.45;36.70;;;-5.50;99.90;;;;;;5101842;28;20229;-49
2022/12/15 01:25:03;;;;;;;55.78;38.83;;;-5.50;99.90;;;;;;5100041;28;20188;-49
2022/12/15 01:27:28;;;;;;;61.60;37.40;;;-5.60;99.90;;;;;;5102482;28;20180;-49
2022/12/15 01:29:54;;;;;;;57.53;37.83;;;-5.60;99.90;;;;;;5101142;28;20183;-50
2022/12/15 01:32:19;;;;;;;59.57;37.87;;;-5.70;99.90;;;;;;5101319;28;20198;-52
2022/12/15 01:34:45;;;;;;;58.73;38.57;;;-5.70;99.90;;;;;;5102043;28;20275;-49
2022/12/15 01:37:11;;;;;;;54.67;36.90;;;-5.80;99.90;;;;;;5102066;28;20225;-53
2022/12/15 01:42:21;;;;;;;58.75;39.03;;;-5.90;99.90;;;;;;5101304;28;21129;-49
2022/12/15 01:44:50;;;;;;;54.27;37.63;;;-5.80;99.90;;;;;;5100950;28;20636;-50
2022/12/15 01:47:17;;;;;;;54.03;39.03;;;-5.90;99.90;;;;;;5101904;28;20180;-55
2022/12/15 01:49:46;;;;;;;57.47;38.08;;;-5.90;99.90;;;;;;5099772;28;20184;-47
2022/12/15 01:52:13;;;;;;;53.53;36.60;;;-5.80;99.90;;;;;;5101436;28;20211;-50
2022/12/15 01:54:53;;;;;;;55.50;38.03;;;-5.70;99.90;;;;;;5101558;28;20646;-50
2022/12/15 01:57:25;;;;;;;61.35;38.53;;;-5.70;99.90;;;;;;5102032;28;20183;-52
2022/12/15 01:59:56;;;;;;;53.75;35.45;;;-5.60;99.90;;;;;;5099519;28;20420;-47
2022/12/15 02:02:25;;;;;;;58.05;38.67;;;-5.50;99.90;;;;;;5098075;27;20177;-45
2022/12/15 02:04:55;;;;;;;61.65;38.03;;;-5.40;99.90;;;;;;5097785;28;20184;-51
2022/12/15 02:07:21;;;;;;;55.13;38.38;;;-5.40;99.90;;;;;;5100028;28;20176;-51
2022/12/15 02:09:48;;;;;;;62.03;39.55;;;-5.30;99.90;;;;;;5100810;28;20195;-49
2022/12/15 02:12:56;;;;;;;58.45;39.22;;;-5.20;99.90;;;;;;5101520;28;20338;-49
2022/12/15 02:16:03;;;;;;;52.05;35.80;;;-5.10;99.90;;;;;;5101690;28;20201;-46
2022/12/15 02:18:52;;;;;;;54.75;36.78;;;-5.00;99.90;;;;;;5048253;28;20650;-46
2022/12/15 02:21:24;;;;;;;59.75;38.70;;;-4.90;99.90;;;;;;5100995;28;20529;-54
2022/12/15 02:23:55;;;;;;;55.00;38.22;;;-4.80;99.90;;;;;;5100281;27;20211;-46
2022/12/15 02:26:27;;;;;;;50.70;37.40;;;-4.70;99.90;;;;;;5101325;28;20961;-48
2022/12/15 02:29:06;;;;;;;55.97;38.38;;;-4.70;99.90;;;;;;5100163;28;20205;-44
2022/12/15 02:31:50;;;;;;;55.25;38.92;;;-4.70;99.90;;;;;;5100457;27;20806;-47
2022/12/15 02:34:25;;;;;;;55.58;37.80;;;-4.60;99.90;;;;;;5100201;27;20298;-54
2022/12/15 02:36:58;;;;;;;51.47;36.90;;;-4.60;99.90;;;;;;5101024;28;20191;-46
2022/12/15 02:39:24;;;;;;;58.17;37.85;;;-4.60;99.90;;;;;;5099725;28;20210;-47
2022/12/15 02:41:51;;;;;;;49.42;36.40;;;-4.60;99.90;;;;;;5099741;28;20184;-56
2022/12/15 02:44:21;;;;;;;54.45;38.20;;;-4.50;99.90;;;;;;5100417;28;20291;-47
2022/12/15 02:47:05;;;;;;;51.33;37.50;;;-4.50;99.90;;;;;;5100110;28;20650;-52
2022/12/15 02:49:45;;;;;;;52.42;36.90;;;-4.50;99.90;;;;;;5100530;28;20184;-47
2022/12/15 02:52:20;;;;;;;57.00;39.25;;;-4.60;99.90;;;;;;5100274;28;20280;-52
2022/12/15 02:55:01;;;;;;;51.90;34.78;;;-4.70;99.90;;;;;;5100380;28;20179;-49
2022/12/15 02:57:32;;;;;;;59.20;37.30;;;-4.70;99.90;;;;;;5098115;28;20194;-48
2022/12/15 03:00:03;;;;;;;52.55;37.83;;;-4.80;99.90;;;;;;5100377;28;20856;-48
2022/12/15 03:02:31;;;;;;;59.67;37.85;;;-4.80;99.90;;;;;;5099472;28;20190;-47
2022/12/15 03:04:57;;;;;;;53.55;37.85;;;-4.90;99.90;;;;;;5098315;28;20312;-51
2022/12/15 03:07:26;;;;;;;55.38;36.85;;;-4.90;99.90;;;;;;5100039;28;20200;-47
2022/12/15 03:09:58;;;;;;;52.35;36.78;;;-5.00;99.90;;;;;;5100954;28;20179;-48
2022/12/15 03:12:23;;;;;;;46.67;36.08;;;-5.10;99.90;;;;;;5099128;28;20176;-51
2022/12/15 03:14:49;;;;;;;54.33;35.37;;;-5.10;99.90;;;;;;5100036;28;20176;-52
2022/12/15 03:17:15;;;;;;;47.80;35.50;;;-5.10;99.90;;;;;;5099758;28;20755;-46
2022/12/15 03:19:40;;;;;;;48.80;33.43;;;-5.20;99.90;;;;;;5098344;28;20234;-51
2022/12/15 03:22:06;;;;;;;48.63;35.20;;;-5.20;99.90;;;;;;5099260;28;20393;-51
2022/12/15 03:24:31;;;;;;;43.73;33.47;;;-5.20;99.90;;;;;;5099646;28;20860;-49
2022/12/15 03:26:57;;;;;;;51.13;35.60;;;-5.20;99.90;;;;;;5098016;28;20699;-46
2022/12/15 03:29:23;;;;;;;48.53;33.97;;;-5.10;99.90;;;;;;5099945;28;20194;-52
2022/12/15 03:31:48;;;;;;;50.60;35.90;;;-5.10;99.90;;;;;;5099649;28;20187;-48
2022/12/15 03:34:14;;;;;;;54.87;35.90;;;-5.10;99.90;;;;;;5097290;28;20640;-51
2022/12/15 03:36:40;;;;;;;52.70;35.47;;;-5.10;99.90;;;;;;5098592;28;20265;-50
2022/12/15 03:39:05;;;;;;;47.63;35.73;;;-5.00;99.90;;;;;;5099927;28;20241;-51
2022/12/15 03:41:31;;;;;;;53.47;36.77;;;-5.10;99.90;;;;;;5099325;28;20283;-46
2022/12/15 03:43:57;;;;;;;48.83;34.47;;;-5.10;99.90;;;;;;5098154;28;20180;-49
2022/12/15 03:46:22;;;;;;;55.70;36.53;;;-5.00;99.90;;;;;;5097785;28;20233;-47
2022/12/15 03:48:49;;;;;;;51.77;36.23;;;-5.00;99.90;;;;;;5099200;28;20262;-46
2022/12/15 03:51:15;;;;;;;52.83;37.15;;;-5.00;99.90;;;;;;5098952;28;20795;-49
2022/12/15 03:53:40;;;;;;;50.83;34.87;;;-5.00;99.90;;;;;;5099842;28;20196;-54
2022/12/15 03:56:06;;;;;;;48.37;35.20;;;-5.00;99.90;;;;;;5098951;28;20578;-56
2022/12/15 03:58:32;;;;;;;47.00;34.07;;;-4.90;99.90;;;;;;5096075;28;21879;-47
2022/12/15 04:00:57;;;;;;;47.83;35.53;;;-5.00;99.90;;;;;;5096116;28;20852;-52
2022/12/15 04:03:23;;;;;;;48.47;32.57;;;-5.10;99.90;;;;;;5096637;28;20176;-47
2022/12/15 04:05:50;;;;;;;50.10;34.40;;;-5.10;99.90;;;;;;5099031;28;20183;-52
2022/12/15 04:08:15;;;;;;;44.03;32.38;;;-5.00;99.90;;;;;;5100355;28;20168;-48
2022/12/15 04:10:42;;;;;;;48.97;33.83;;;-5.00;99.90;;;;;;5099468;28;20588;-53
2022/12/15 04:13:09;;;;;;;49.63;33.83;;;-5.00;99.90;;;;;;5098303;28;20209;-50
2022/12/15 04:15:37;;;;;;;43.08;33.30;;;-5.00;99.90;;;;;;5098052;28;20192;-54
2022/12/15 04:18:05;;;;;;;51.80;32.72;;;-5.00;99.90;;;;;;5098581;28;20197;-47
2022/12/15 04:20:31;;;;;;;50.67;32.58;;;-5.00;99.90;;;;;;5095637;28;20203;-48
2022/12/15 04:22:58;;;;;;;49.65;34.13;;;-5.10;99.90;;;;;;5097978;28;20191;-48
2022/12/15 05:34:12;;;;;;;36.17;28.25;;;-6.40;99.90;;;;;;5099583;28;20260;-46
2022/12/15 05:36:38;;;;;;;41.20;29.50;;;-6.40;99.90;;;;;;5100934;28;20306;-46
2022/12/15 05:39:04;;;;;;;47.80;28.40;;;-6.40;99.90;;;;;;5101421;28;20242;-46
2022/12/15 05:41:29;;;;;;;40.40;28.70;;;-6.40;99.90;;;;;;5102252;28;20176;-46
2022/12/15 05:43:55;;;;;;;42.27;30.77;;;-6.40;99.90;;;;;;5103427;28;20211;-51
2022/12/15 05:46:20;;;;;;;44.83;30.77;;;-6.50;99.90;;;;;;5100184;28;20192;-51
2022/12/15 05:48:46;;;;;;;47.20;30.90;;;-6.50;99.90;;;;;;5101789;28;20226;-51
2022/12/15 05:51:12;;;;;;;47.40;31.03;;;-6.40;99.90;;;;;;5102542;28;20179;-49
2022/12/15 05:53:39;;;;;;;36.75;29.98;;;-6.50;99.90;;;;;;5100193;28;20180;-54
2022/12/15 05:56:08;;;;;;;46.97;31.17;;;-6.50;99.90;;;;;;5101849;28;20184;-49
2022/12/15 05:58:34;;;;;;;45.95;29.40;;;-6.50;99.90;;;;;;5102019;28;20645;-51
2022/12/15 06:01:05;;;;;;;41.83;29.65;;;-6.60;99.90;;;;;;5100962;28;20192;-54
2022/12/15 06:03:31;;;;;;;46.22;30.15;;;-6.60;99.90;;;;;;5101284;28;20187;-50
2022/12/15 06:05:59;;;;;;;38.53;28.60;;;-6.60;99.90;;;;;;5100723;28;20183;-51
2022/12/15 06:08:29;;;;;;;40.97;28.92;;;-6.60;99.90;;;;;;5099834;28;20626;-54
2022/12/15 06:10:55;;;;;;;42.58;28.65;;;-6.60;99.90;;;;;;5100669;28;20195;-53
2022/12/15 06:13:23;;;;;;;40.30;29.23;;;-6.60;99.90;;;;;;5101579;28;20273;-50
2022/12/15 06:15:56;;;;;;;42.45;27.98;;;-6.60;99.90;;;;;;5101965;28;20709;-56
2022/12/15 06:18:23;;;;;;;41.78;28.52;;;-6.60;99.90;;;;;;5102137;27;20200;-53
2022/12/15 06:20:48;;;;;;;43.80;27.60;;;-6.60;99.90;;;;;;5102344;28;20207;-55
2022/12/15 06:23:14;;;;;;;41.83;29.40;;;-6.60;99.90;;;;;;5101822;28;20183;-52
2022/12/15 06:25:40;;;;;;;40.50;28.17;;;-6.60;99.90;;;;;;5102174;28;20209;-50
2022/12/15 06:28:05;;;;;;;40.33;26.90;;;-6.70;99.90;;;;;;5101597;28;20225;-48
2022/12/15 06:30:31;;;;;;;40.80;28.07;;;-6.70;99.90;;;;;;5101560;28;20223;-50
2022/12/15 06:32:56;;;;;;;39.80;27.03;;;-6.70;99.90;;;;;;5101616;28;20191;-49
2022/12/15 06:35:22;;;;;;;43.57;30.07;;;-6.70;99.90;;;;;;5102016;28;20657;-52
2022/12/15 06:37:47;;;;;;;38.43;26.77;;;-6.70;99.90;;;;;;5102132;28;20262;-51
2022/12/15 06:40:13;;;;;;;43.63;27.87;;;-6.70;99.90;;;;;;5101652;28;20200;-54
2022/12/15 06:42:39;;;;;;;38.87;28.43;;;-6.70;99.90;;;;;;5101691;28;20601;-52
2022/12/15 06:45:05;;;;;;;35.77;27.50;;;-6.70;99.90;;;;;;5101591;28;20255;-57
2022/12/15 06:47:30;;;;;;;40.53;28.20;;;-6.70;99.90;;;;;;5101449;28;20172;-50
2022/12/15 06:49:56;;;;;;;32.67;25.43;;;-6.70;99.90;;;;;;5102024;28;20669;-50
2022/12/15 06:52:21;;;;;;;39.60;27.50;;;-6.70;99.90;;;;;;5101635;28;20598;-53
2022/12/15 06:54:47;;;;;;;32.80;26.60;;;-6.80;99.90;;;;;;5100509;28;20186;-51
2022/12/15 06:57:13;;;;;;;42.20;27.97;;;-6.90;99.90;;;;;;5101473;28;20207;-50
2022/12/15 06:59:38;;;;;;;41.57;29.80;;;-6.90;99.90;;;;;;5100982;28;20199;-54
2022/12/15 07:02:04;;;;;;;39.50;28.73;;;-6.90;99.90;;;;;;5101359;28;20259;-51
2022/12/15 07:04:31;;;;;;;38.50;28.33;;;-6.90;99.90;;;;;;5101592;28;20175;-49
2022/12/15 07:06:57;;;;;;;35.75;27.45;;;-6.90;99.90;;;;;;5101352;28;20168;-54
2022/12/15 07:09:24;;;;;;;38.67;28.00;;;-6.90;99.90;;;;;;5100963;28;20540;-49
2022/12/15 07:11:51;;;;;;;38.80;27.80;;;-6.90;99.90;;;;;;5100992;28;20187;-52
2022/12/15 07:14:16;;;;;;;45.63;28.50;;;-6.90;99.90;;;;;;5101448;28;20183;-51
2022/12/15 07:16:42;;;;;;;39.33;28.20;;;-7.00;99.90;;;;;;5100837;28;20239;-52
2022/12/15 07:19:11;;;;;;;36.87;27.03;;;-7.00;99.90;;;;;;5099692;28;20238;-49
2022/12/15 07:21:36;;;;;;;37.28;27.52;;;-7.10;99.90;;;;;;5101075;28;20314;-48
2022/12/15 07:24:02;;;;;;;39.00;26.47;;;-7.10;99.90;;;;;;5100629;28;20188;-51
2022/12/15 07:26:29;;;;;;;38.10;28.15;;;-7.00;99.90;;;;;;5101014;28;20258;-52
2022/12/15 07:28:55;;;;;;;43.40;29.95;;;-7.10;99.90;;;;;;5100609;28;20482;-50
2022/12/15 07:31:21;;;;;;;40.75;27.05;;;-7.20;99.90;;;;;;5100583;28;20717;-50
2022/12/15 07:33:47;;;;;;;44.92;27.40;;;-7.20;99.90;;;;;;5100455;28;20184;-52
2022/12/15 07:36:12;;;;;;;40.63;28.10;;;-7.30;99.90;;;;;;5098983;28;20183;-51
2022/12/15 07:38:38;;;;;;;45.13;28.17;;;-7.30;99.90;;;;;;5100686;28;20650;-52
2022/12/15 07:41:06;;;;;;;40.13;27.80;;;-7.20;99.90;;;;;;5101242;28;20188;-52
2022/12/15 07:43:32;;;;;;;44.67;29.45;;;-7.20;99.90;;;;;;5101062;27;20656;-55
2022/12/15 07:45:58;;;;;;;48.17;30.60;;;-7.20;99.90;;;;;;5100494;28;20191;-48
2022/12/15 07:48:23;;;;;;;45.97;31.35;;;-7.20;99.90;;;;;;5100944;28;20528;-49
2022/12/15 07:50:50;;;;;;;42.23;29.07;;;-7.20;99.90;;;;;;5100274;28;20176;-48
2022/12/15 07:53:16;;;;;;;47.20;29.05;;;-7.10;99.90;;;;;;5100907;27;20176;-53
2022/12/15 07:55:42;;;;;;;39.70;29.37;;;-7.10;99.90;;;;;;5100591;28;20187;-52
2022/12/15 07:58:07;;;;;;;43.43;29.90;;;-7.00;99.90;;;;;;5099218;28;20786;-51
2022/12/15 08:00:33;;;;;;;43.60;28.90;;;-7.00;99.90;;;;;;5100250;28;20211;-51
2022/12/15 08:03:01;;;;;;;37.17;27.40;;;-6.90;99.90;;;;;;5100333;28;20630;-49
2022/12/15 08:05:27;;;;;;;41.00;28.25;;;-6.90;99.90;;;;;;5099622;28;20556;-52
2022/12/15 08:07:52;;;;;;;43.57;28.30;;;-7.00;99.90;;;;;;5099930;28;20180;-51
2022/12/15 08:10:18;;;;;;;38.17;27.57;;;-6.90;99.90;;;;;;5099213;28;20180;-51
2022/12/15 08:12:43;;;;;;;38.27;27.47;;;-6.90;99.90;;;;;;5100546;28;20184;-49
2022/12/15 08:15:10;;;;;;;35.27;26.20;;;-6.90;99.90;;;;;;5099948;28;20672;-54
2022/12/15 08:17:36;;;;;;;36.85;25.92;;;-6.90;99.90;;;;;;5099456;28;20318;-53
2022/12/15 08:20:02;;;;;;;34.53;25.17;;;-6.80;99.90;;;;;;5099259;28;20199;-53
2022/12/15 08:22:28;;;;;;;40.65;27.98;;;-6.60;99.90;;;;;;5099899;28;20625;-50
2022/12/15 08:24:53;;;;;;;36.70;26.47;;;-6.70;99.90;;;;;;5099209;28;20175;-53
2022/12/15 08:27:20;;;;;;;39.40;25.73;;;-6.60;99.90;;;;;;5099755;28;20180;-54
2022/12/15 08:29:46;;;;;;;39.00;27.08;;;-6.50;99.90;;;;;;5099791;28;20176;-57
2022/12/15 08:32:13;;;;;;;36.57;26.37;;;-6.60;99.90;;;;;;5098322;28;20215;-51
2022/12/15 08:34:38;;;;;;;33.75;25.30;;;-6.50;99.90;;;;;;5100138;28;20428;-49
2022/12/15 08:37:04;;;;;;;34.77;26.97;;;-6.40;99.90;;;;;;5099922;28;20184;-53
2022/12/15 08:39:30;;;;;;;40.60;27.00;;;-6.20;99.90;;;;;;5099540;28;20689;-54
2022/12/15 08:41:55;;;;;;;36.90;26.75;;;-5.80;99.90;;;;;;5099594;28;20244;-52
2022/12/15 08:44:21;;;;;;;41.10;29.00;;;-5.20;99.90;;;;;;5100508;28;20179;-49
2022/12/15 08:46:47;;;;;;;40.50;29.97;;;-4.60;99.90;;;;;;5099723;28;20185;-52
2022/12/15 08:49:13;;;;;;;38.60;28.67;;;-4.10;99.90;;;;;;5099767;28;20410;-48
2022/12/15 08:51:38;;;;;;;36.97;28.80;;;-3.90;99.90;;;;;;5100202;28;20190;-52
2022/12/15 08:54:04;;;;;;;36.80;27.80;;;-3.80;99.90;;;;;;5099412;28;20263;-56
2022/12/15 08:56:29;;;;;;;36.93;27.70;;;-3.80;99.90;;;;;;5099741;28;20182;-50
2022/12/15 08:58:58;;;;;;;32.00;26.63;;;-3.80;99.90;;;;;;5098393;28;20630;-53
2022/12/15 09:01:26;;;;;;;37.38;29.17;;;-3.90;99.90;;;;;;5099275;28;20180;-52
2022/12/15 09:03:53;;;;;;;39.55;28.30;;;-3.90;99.90;;;;;;5099568;28;20176;-52
2022/12/15 09:06:21;;;;;;;41.03;30.80;;;-3.70;99.90;;;;;;5099478;28;20233;-52
2022/12/15 09:08:47;;;;;;;38.22;29.77;;;-3.20;99.90;;;;;;5100423;28;20662;-54
2022/12/15 09:11:13;;;;;;;39.63;30.17;;;-2.50;99.90;;;;;;5101882;28;20550;-54
2022/12/15 09:13:38;;;;;;;36.30;28.80;;;-1.70;99.90;;;;;;5103364;28;20642;-54
2022/12/15 09:16:07;;;;;;;35.80;29.63;;;-1.00;99.90;;;;;;5102579;28;20465;-48
2022/12/15 09:18:33;;;;;;;36.88;28.50;;;-0.40;99.90;;;;;;5102517;28;20706;-55
2022/12/15 09:21:04;;;;;;;35.03;28.65;;;0.20;99.90;;;;;;5102928;28;20225;-53
2022/12/15 09:23:30;;;;;;;34.85;29.65;;;0.90;99.90;;;;;;5102292;28;20197;-48
2022/12/15 09:26:04;;;;;;;32.40;28.77;;;1.30;97.00;;;;;;5103298;28;20648;-52
2022/12/15 09:28:33;;;;;;;36.20;30.05;;;1.50;95.10;;;;;;5103351;28;20604;-51
2022/12/15 09:31:08;;;;;;;35.05;30.02;;;1.70;93.10;;;;;;5103204;28;20180;-53
2022/12/15 09:33:34;;;;;;;38.33;31.75;;;1.90;91.70;;;;;;5102878;28;20180;-54
2022/12/15 09:36:00;;;;;;;36.10;30.65;;;1.80;90.60;;;;;;5102841;28;20188;-54
2022/12/15 09:38:26;;;;;;;36.33;31.60;;;1.50;90.50;;;;;;5103375;28;20176;-54
2022/12/15 09:40:52;;;;;;;35.03;29.83;;;1.70;90.90;;;;;;5102714;28;20464;-53
2022/12/15 09:43:27;;;;;;;33.87;29.70;;;1.10;90.20;;;;;;5103111;28;20186;-53
2022/12/15 09:46:02;;;;;;;35.10;31.25;;;0.90;91.90;;;;;;5102751;28;20273;-52
2022/12/15 09:48:38;;;;;;;36.72;31.05;;;0.60;93.50;;;;;;5102890;28;20189;-55
2022/12/15 09:51:13;;;;;;;39.42;32.13;;;0.90;94.30;;;;;;5102475;28;20202;-54
2022/12/15 09:53:38;;;;;;;37.33;31.52;;;0.90;93.60;;;;;;5102784;28;20656;-53
2022/12/15 09:56:12;;;;;;;39.57;31.00;;;1.20;93.10;;;;;;5102677;28;20490;-50
2022/12/15 09:59:02;;;;;;;39.42;31.60;;;1.30;91.90;;;;;;5100916;28;20218;-52
2022/12/15 10:02:05;;;;;;;39.53;32.63;;;1.00;91.80;;;;;;5102781;28;20183;-51
2022/12/15 10:04:55;;;;;;;36.47;30.83;;;1.00;92.60;;;;;;5103030;28;20708;-56
2022/12/15 10:07:30;;;;;;;39.78;30.95;;;0.90;92.30;;;;;;5100849;28;20612;-55
2022/12/15 10:09:55;;;;;;;38.70;30.90;;;0.80;93.20;;;;;;5102422;28;20656;-54
2022/12/15 10:12:28;;;;;;;38.93;30.97;;;0.40;93.50;;;;;;5101973;28;20197;-55
2022/12/15 10:15:16;;;;;;;37.22;32.08;;;0.50;94.80;;;;;;5102216;28;20186;-52
2022/12/15 10:17:58;;;;;;;41.90;32.28;;;0.40;96.20;;;;;;5102338;28;20715;-54
2022/12/15 10:20:30;;;;;;;40.67;31.92;;;0.80;96.50;;;;;;5101114;28;20202;-52
2022/12/15 10:23:10;;;;;;;39.42;32.13;;;1.20;95.30;;;;;;5101705;28;20203;-53
2022/12/15 10:25:35;;;;;;;41.05;34.45;;;1.60;93.80;;;;;;5100176;28;20202;-56
2022/12/15 10:28:25;;;;;;;38.93;32.17;;;2.60;91.10;;;;;;5102208;28;20299;-50
2022/12/15 10:30:57;;;;;;;37.90;33.70;;;3.60;86.50;;;;;;5101961;28;20655;-49
2022/12/15 10:33:34;;;;;;;38.17;34.03;;;4.70;75.90;;;;;;5102273;28;20186;-53
2022/12/15 10:36:00;;;;;;;41.63;35.30;;;5.50;70.80;;;;;;5101853;28;20767;-52
2022/12/15 10:38:32;;;;;;;39.73;34.20;;;5.70;62.00;;;;;;5102114;28;20413;-53
2022/12/15 10:41:01;;;;;;;41.50;34.70;;;5.30;60.70;;;;;;5101453;28;20218;-54
2022/12/15 10:43:33;;;;;;;38.50;34.33;;;5.50;61.60;;;;;;5102000;27;20424;-55
2022/12/15 10:46:00;;;;;;;42.77;35.40;;;6.40;59.60;;;;;;5101403;28;20417;-50
2022/12/15 10:48:26;;;;;;;42.23;35.73;;;6.30;56.80;;;;;;5101841;28;20421;-54
2022/12/15 10:51:12;;;;;;;41.27;36.73;;;6.20;56.00;;;;;;5101654;28;20416;-58
2022/12/15 10:53:53;;;;;;;41.00;35.93;;;6.70;54.80;;;;;;5101491;28;20346;-49
2022/12/15 10:56:25;;;;;;;41.47;35.60;;;6.00;55.50;;;;;;5102264;28;20592;-56
2022/12/15 10:58:53;;;;;;;42.73;36.03;;;6.50;54.80;;;;;;5100554;28;20923;-54
2022/12/15 11:01:24;;;;;;;39.93;35.50;;;6.50;54.80;;;;;;5101318;28;20411;-55
2022/12/15 11:03:51;;;;;;;41.80;36.17;;;7.40;53.10;;;;;;5101524;28;20409;-52
2022/12/15 11:06:23;;;;;;;42.87;37.20;;;7.80;51.70;;;;;;5100848;28;20714;-54
2022/12/15 11:08:55;;;;;;;41.03;36.70;;;8.00;50.60;;;;;;5101076;28;20454;-59
2022/12/15 11:14:24;;;;;;;41.93;37.43;;;7.40;48.10;;;;;;5101150;28;20408;-52
2022/12/15 11:16:56;;;;;;;42.30;37.10;;;6.90;50.40;;;;;;5100533;28;21285;-55
2022/12/15 11:19:27;;;;;;;40.00;35.80;;;7.40;50.00;;;;;;5100595;28;21045;-55
2022/12/15 11:21:58;;;;;;;39.10;34.90;;;7.10;49.10;;;;;;5100681;28;20445;-53
2022/12/15 11:24:43;;;;;;;39.30;35.10;;;7.20;49.60;;;;;;5100935;28;20429;-46
2022/12/15 11:27:31;;;;;;;38.90;34.60;;;7.20;50.40;;;;;;5101026;28;20413;-55
2022/12/15 11:30:19;;;;;;;39.60;35.50;;;7.70;49.90;;;;;;5100658;28;20417;-57
2022/12/15 11:32:48;;;;;;;40.07;36.07;;;8.10;48.90;;;;;;5100340;28;20817;-55
2022/12/15 11:35:19;;;;;;;40.03;35.83;;;8.60;47.20;;;;;;5100633;28;20716;-57
2022/12/15 11:37:54;;;;;;;37.83;33.87;;;9.10;46.30;;;;;;5100751;28;20406;-56
2022/12/15 11:40:39;;;;;;;39.17;34.97;;;9.70;45.00;;;;;;5100925;28;20926;-51
2022/12/15 11:43:24;;;;;;;38.73;34.87;;;9.50;43.20;;;;;;5100927;27;20407;-56
2022/12/15 11:45:59;;;;;;;40.17;35.97;;;9.50;43.50;;;;;;5100529;28;20820;-52
2022/12/15 11:48:33;;;;;;;36.70;33.00;;;9.40;44.00;;;;;;5100370;28;20414;-57
2022/12/15 11:51:05;;;;;;;39.80;35.80;;;9.70;42.10;;;;;;5100481;28;21043;-58
2022/12/15 11:54:05;;;;;;;40.30;36.20;;;9.80;41.40;;;;;;5100831;28;20424;-58
2022/12/15 11:56:41;;;;;;;38.23;34.33;;;10.10;40.90;;;;;;5030504;28;20423;-54
2022/12/15 11:59:28;;;;;;;39.97;35.77;;;10.20;40.10;;;;;;5100439;28;20434;-56
2022/12/15 12:02:18;;;;;;;39.60;35.50;;;10.10;40.20;;;;;;5100091;28;20423;-54
2022/12/15 12:05:15;;;;;;;41.83;37.53;;;9.80;40.30;;;;;;5100171;28;20412;-53
2022/12/15 12:08:00;;;;;;;40.20;36.20;;;9.60;40.90;;;;;;5100406;28;20399;-55
2022/12/15 12:10:46;;;;;;;39.97;35.93;;;9.10;41.70;;;;;;5100388;28;20900;-53
2022/12/15 12:13:21;;;;;;;39.30;35.30;;;8.80;43.20;;;;;;5099934;28;20965;-55
2022/12/15 12:16:02;;;;;;;39.80;35.50;;;7.90;42.90;;;;;;5099815;28;20415;-57
2022/12/15 12:18:36;;;;;;;40.27;36.17;;;7.20;43.70;;;;;;5099959;28;20416;-50
2022/12/15 12:21:10;;;;;;;38.87;34.80;;;6.10;46.40;;;;;;5099553;28;20473;-54
2022/12/15 12:23:48;;;;;;;41.50;37.10;;;5.40;49.40;;;;;;5099347;28;20755;-56
2022/12/15 12:26:34;;;;;;;39.00;34.90;;;4.90;51.90;;;;;;5099756;28;20425;-50
2022/12/15 12:29:21;;;;;;;38.13;34.00;;;4.50;53.70;;;;;;5099756;28;20425;-54
2022/12/15 12:31:53;;;;;;;36.23;32.27;;;4.70;54.90;;;;;;5099393;28;20599;-52
2022/12/15 12:34:54;;;;;;;39.40;35.40;;;4.50;54.80;;;;;;5100251;28;21264;-54
2022/12/15 12:37:22;;;;;;;41.97;35.63;;;5.10;55.60;;;;;;5099369;28;20921;-50
2022/12/15 12:39:50;;;;;;;39.63;35.43;;;5.90;55.00;;;;;;5098901;28;21271;-53
2022/12/15 12:42:39;;;;;;;38.80;34.67;;;6.00;52.60;;;;;;5099462;28;20497;-46
2022/12/15 12:45:05;;;;;;;40.70;35.50;;;6.00;53.00;;;;;;5098462;28;20417;-48
2022/12/15 12:47:35;;;;;;;40.97;36.37;;;5.70;52.40;;;;;;5099224;28;20530;-48
2022/12/15 12:50:18;;;;;;;39.63;35.33;;;5.80;52.50;;;;;;5099511;28;20473;-46
2022/12/15 12:52:50;;;;;;;42.90;36.53;;;5.60;53.70;;;;;;5099101;28;20415;-48
2022/12/15 12:55:27;;;;;;;41.97;36.40;;;5.60;53.40;;;;;;5099310;28;20843;-46
2022/12/15 12:57:54;;;;;;;42.90;37.87;;;5.30;54.50;;;;;;5098793;28;20912;-47
2022/12/15 13:00:25;;;;;;;41.33;35.00;;;5.20;55.40;;;;;;5099671;28;20464;-47
2022/12/15 13:02:51;;;;;;;40.07;35.70;;;5.70;55.60;;;;;;5099613;28;20410;-47
2022/12/15 13:05:32;;;;;;;41.60;36.77;;;5.80;54.40;;;;;;5099666;28;20431;-51
2022/12/15 13:08:04;;;;;;;39.80;35.47;;;6.20;52.90;;;;;;5099323;28;20203;-57
2022/12/15 13:10:48;;;;;;;42.47;36.30;;;6.70;51.30;;;;;;5098479;28;20512;-56
2022/12/15 13:13:29;;;;;;;38.63;34.33;;;7.10;50.30;;;;;;5098603;28;20739;-55
2022/12/15 13:16:08;;;;;;;41.10;35.40;;;7.20;49.10;;;;;;5098664;28;20460;-52
2022/12/15 13:19:00;;;;;;;40.10;35.40;;;7.30;48.50;;;;;;5098709;28;21039;-57
2022/12/15 13:21:56;;;;;;;39.57;35.27;;;7.20;48.70;;;;;;5098872;28;20426;-58
2022/12/15 13:24:31;;;;;;;42.53;35.70;;;6.80;51.00;;;;;;5064702;28;20428;-53
2022/12/15 13:27:25;;;;;;;40.37;34.13;;;6.90;50.50;;;;;;5099321;28;20471;-54
2022/12/15 13:30:06;;;;;;;42.50;35.53;;;7.50;48.00;;;;;;5096578;28;20784;-51
2022/12/15 13:32:39;;;;;;;40.37;35.57;;;7.00;49.30;;;;;;5098822;28;21116;-52
2022/12/15 13:35:14;;;;;;;41.03;36.57;;;6.20;51.60;;;;;;5099130;28;20471;-54
2022/12/15 13:38:01;;;;;;;42.60;37.47;;;6.20;50.80;;;;;;5099532;28;20417;-53
2022/12/15 13:40:32;;;;;;;39.30;35.00;;;6.10;51.10;;;;;;5099967;28;20453;-49
2022/12/15 13:43:04;;;;;;;41.50;36.07;;;5.90;51.80;;;;;;5099351;28;20942;-60
2022/12/15 13:45:48;;;;;;;41.33;36.10;;;5.60;52.80;;;;;;5098994;28;20409;-49
2022/12/15 13:48:35;;;;;;;42.13;34.67;;;5.20;54.20;;;;;;5098927;28;20485;-56
2022/12/15 13:51:20;;;;;;;41.37;36.17;;;4.80;56.70;;;;;;5098960;28;20430;-54
2022/12/15 13:53:51;;;;;;;43.33;35.45;;;4.50;57.90;;;;;;5099550;28;20414;-52
2022/12/15 13:56:35;;;;;;;40.08;34.88;;;4.20;59.80;;;;;;5100385;28;20189;-54
2022/12/15 13:59:09;;;;;;;43.63;35.33;;;4.20;60.40;;;;;;5102578;28;20223;-51
2022/12/15 14:01:35;;;;;;;45.22;36.25;;;3.90;62.30;;;;;;5102236;28;20442;-56
2022/12/15 14:04:14;;;;;;;43.57;35.90;;;3.70;65.40;;;;;;5102758;28;20835;-53
2022/12/15 14:06:45;;;;;;;45.30;35.33;;;3.70;67.10;;;;;;5103170;28;20177;-52
2022/12/15 14:09:15;;;;;;;42.75;34.80;;;3.60;68.80;;;;;;5102789;28;20187;-54
2022/12/15 14:11:43;;;;;;;40.83;33.70;;;3.40;69.30;;;;;;5102398;28;20276;-51
2022/12/15 14:14:23;;;;;;;43.28;36.63;;;3.30;72.20;;;;;;5102454;28;20693;-50
2022/12/15 14:17:10;;;;;;;45.95;35.53;;;3.20;73.20;;;;;;5102181;28;20231;-52
2022/12/15 14:19:47;;;;;;;47.55;35.92;;;3.00;75.10;;;;;;5101757;28;20199;-53
2022/12/15 14:22:30;;;;;;;42.67;34.85;;;2.70;79.10;;;;;;5101949;28;20255;-53
2022/12/15 14:25:18;;;;;;;51.15;37.38;;;2.40;82.80;;;;;;5102744;28;20179;-53
2022/12/15 14:27:44;;;;;;;47.25;36.42;;;2.10;86.80;;;;;;5101969;28;20610;-53
2022/12/15 14:30:18;;;;;;;45.87;35.60;;;1.70;90.60;;;;;;5102982;28;20183;-54
2022/12/15 14:32:47;;;;;;;44.17;35.50;;;1.40;93.10;;;;;;5102008;28;20425;-53
2022/12/15 14:35:55;;;;;;;44.13;35.30;;;1.10;94.50;;;;;;5101907;28;20186;-52
2022/12/15 14:38:34;;;;;;;45.60;34.53;;;0.80;95.50;;;;;;5101900;28;20599;-51
2022/12/15 14:41:01;;;;;;;51.67;36.75;;;0.50;97.70;;;;;;5102515;28;20196;-53
2022/12/15 14:43:33;;;;;;;48.38;34.70;;;0.20;99.80;;;;;;5101855;28;20182;-53
2022/12/15 14:46:17;;;;;;;52.22;37.00;;;-0.10;99.90;;;;;;5101964;28;20678;-54
2022/12/15 14:48:50;;;;;;;50.28;34.53;;;-0.30;99.90;;;;;;5102056;28;20477;-50
2022/12/15 14:51:16;;;;;;;47.97;34.35;;;-0.60;99.90;;;;;;5101688;28;20188;-61
2022/12/15 14:53:48;;;;;;;46.97;35.53;;;-0.70;99.90;;;;;;5101784;28;20184;-53
2022/12/15 14:56:20;;;;;;;44.90;34.55;;;-0.90;99.90;;;;;;5101176;28;20539;-51
2022/12/15 14:59:02;;;;;;;51.35;35.13;;;-1.20;99.90;;;;;;5099887;28;20511;-53
2022/12/15 15:01:51;;;;;;;50.65;36.65;;;-1.30;99.90;;;;;;5101887;28;20194;-51
2022/12/15 15:04:28;;;;;;;53.80;37.88;;;-1.50;99.90;;;;;;5101306;28;20229;-54
2022/12/15 15:06:56;;;;;;;52.25;37.42;;;-1.70;99.90;;;;;;5100451;28;20548;-58
2022/12/15 15:09:27;;;;;;;50.78;36.22;;;-1.80;99.90;;;;;;5101651;28;20249;-54
2022/12/15 15:12:20;;;;;;;50.85;36.55;;;-2.00;99.90;;;;;;5101155;28;20262;-51
2022/12/15 15:15:07;;;;;;;51.72;36.28;;;-2.10;99.90;;;;;;5101368;28;20650;-50
2022/12/15 15:17:42;;;;;;;60.75;37.85;;;-2.30;99.90;;;;;;5100496;28;20234;-46
2022/12/15 15:20:33;;;;;;;51.05;35.00;;;-2.40;99.90;;;;;;5100554;28;20637;-47